Stourport, United Kingdom
Current Conditions -  °F | °C
As of 3:50 AM on Thursday 23 Oct 2014 (Local Time) from EGBB Reporting Station
Overcast Overcast  
Wind Chill: 54°   Ceiling: 3000
Heat Index: 54°   Visibility: 6mi
Dew Point: 45°   Wind: 6mph
Humidity: 72%   Direction: 180°S
Pressure: 30.09"   Gusts: NA
Location:  52.33°N, 2.28°W
Report Text: EGBB 230250Z 18005KT 140V230 9999 OVC030 12/07 Q1019
Loading
Personal Weather Stations






























Interactive Weather Map
Tropical Storm Tracking
New forecast layout! Learn more

10-Day Weather Forecast

Advertisements
Track Severe Weather on mobile